sensor_id;sensor_type;location;lat;lon;timestamp;pressure;altitude;pressure_sealevel;temperature;humidity
53089;BME280;38968;47.696;17.540;2022-07-06T00:02:31;10045210.0;;;20.33;60.38477
53089;BME280;38968;47.696;17.540;2022-07-06T00:07:33;10044950.0;;;20.52;59.51953
53089;BME280;38968;47.696;17.540;2022-07-06T00:12:31;10044860.0;;;20.33;59.69336
53089;BME280;38968;47.696;17.540;2022-07-06T00:17:31;10044020.0;;;20.61;58.65137
53089;BME280;38968;47.696;17.540;2022-07-06T00:22:31;10043620.0;;;20.5;58.56836
53089;BME280;38968;47.696;17.540;2022-07-06T00:27:31;10042960.0;;;20.06;59.59863
53089;BME280;38968;47.696;17.540;2022-07-06T00:32:31;10043220.0;;;20.07;59.95215
53089;BME280;38968;47.696;17.540;2022-07-06T00:37:31;10043880.0;;;20.33;59.43555
53089;BME280;38968;47.696;17.540;2022-07-06T00:42:47;10044440.0;;;20.11;59.24219
53089;BME280;38968;47.696;17.540;2022-07-06T00:47:33;10044340.0;;;20.12;59.50293
53089;BME280;38968;47.696;17.540;2022-07-06T00:52:31;10043830.0;;;19.9;59.48438
53089;BME280;38968;47.696;17.540;2022-07-06T00:57:31;10044480.0;;;20.19;58.375
53089;BME280;38968;47.696;17.540;2022-07-06T01:02:31;10046120.0;;;20.48;57.84961
53089;BME280;38968;47.696;17.540;2022-07-06T01:07:31;10047140.0;;;20.56;57.51953
53089;BME280;38968;47.696;17.540;2022-07-06T01:12:33;10047090.0;;;20.66;57.36914
53089;BME280;38968;47.696;17.540;2022-07-06T01:17:32;10048230.0;;;20.68;56.94922
53089;BME280;38968;47.696;17.540;2022-07-06T01:22:31;10048590.0;;;20.5;56.87793
53089;BME280;38968;47.696;17.540;2022-07-06T01:27:32;10048090.0;;;20.23;57.43164
53089;BME280;38968;47.696;17.540;2022-07-06T01:32:31;10047770.0;;;20.18;57.38965
53089;BME280;38968;47.696;17.540;2022-07-06T01:37:31;10047650.0;;;19.86;58.09863
53089;BME280;38968;47.696;17.540;2022-07-06T01:42:31;10048590.0;;;19.74;58.62109
53089;BME280;38968;47.696;17.540;2022-07-06T01:47:31;10048270.0;;;19.68;58.96289
53089;BME280;38968;47.696;17.540;2022-07-06T01:52:31;10048660.0;;;19.8;58.5459
53089;BME280;38968;47.696;17.540;2022-07-06T01:57:31;10047930.0;;;20.02;57.27441
53089;BME280;38968;47.696;17.540;2022-07-06T02:02:31;10047690.0;;;19.96;57.3252
53089;BME280;38968;47.696;17.540;2022-07-06T02:07:33;10048440.0;;;19.88;57.30273
53089;BME280;38968;47.696;17.540;2022-07-06T02:12:31;10047990.0;;;19.9;57.34082
53089;BME280;38968;47.696;17.540;2022-07-06T02:17:31;10048640.0;;;19.83;57.1084
53089;BME280;38968;47.696;17.540;2022-07-06T02:22:31;10049420.0;;;19.87;57.37207
53089;BME280;38968;47.696;17.540;2022-07-06T02:27:31;10050630.0;;;19.91;57.35449
53089;BME280;38968;47.696;17.540;2022-07-06T02:32:31;10051430.0;;;19.72;58.12695
53089;BME280;38968;47.696;17.540;2022-07-06T02:37:31;10050700.0;;;19.57;58.60938
53089;BME280;38968;47.696;17.540;2022-07-06T02:42:31;10051340.0;;;19.73;58.51465
53089;BME280;38968;47.696;17.540;2022-07-06T02:47:31;10050870.0;;;19.97;57.85449
53089;BME280;38968;47.696;17.540;2022-07-06T02:52:33;10049830.0;;;19.94;57.9209
53089;BME280;38968;47.696;17.540;2022-07-06T02:57:31;10050210.0;;;19.87;57.47754
53089;BME280;38968;47.696;17.540;2022-07-06T03:02:31;10049310.0;;;19.72;57.89258
53089;BME280;38968;47.696;17.540;2022-07-06T03:07:31;10049200.0;;;19.58;58.02539
53089;BME280;38968;47.696;17.540;2022-07-06T03:12:31;10048440.0;;;19.48;58.41113
53089;BME280;38968;47.696;17.540;2022-07-06T03:17:31;10049660.0;;;19.34;58.82422
53089;BME280;38968;47.696;17.540;2022-07-06T03:22:31;10049140.0;;;19.31;59.48633
53089;BME280;38968;47.696;17.540;2022-07-06T03:27:31;10050650.0;;;19.49;58.45801
53089;BME280;38968;47.696;17.540;2022-07-06T03:32:31;10049150.0;;;19.48;58.375
53089;BME280;38968;47.696;17.540;2022-07-06T03:37:31;10050050.0;;;19.45;58.6416
53089;BME280;38968;47.696;17.540;2022-07-06T03:42:31;10048040.0;;;19.59;58.19141
53089;BME280;38968;47.696;17.540;2022-07-06T03:47:31;10048070.0;;;19.71;57.52832
53089;BME280;38968;47.696;17.540;2022-07-06T03:52:31;10047590.0;;;19.8;57.22266
53089;BME280;38968;47.696;17.540;2022-07-06T03:57:31;10047030.0;;;19.86;57.17188
53089;BME280;38968;47.696;17.540;2022-07-06T04:02:31;10047860.0;;;19.97;57.58496
53089;BME280;38968;47.696;17.540;2022-07-06T04:07:32;10046330.0;;;20.04;57.4873
53089;BME280;38968;47.696;17.540;2022-07-06T04:12:31;10046800.0;;;19.98;57.62109
53089;BME280;38968;47.696;17.540;2022-07-06T04:17:31;10046090.0;;;19.79;57.86523
53089;BME280;38968;47.696;17.540;2022-07-06T04:22:31;10047160.0;;;19.58;58.77539
53089;BME280;38968;47.696;17.540;2022-07-06T04:27:31;10047850.0;;;19.81;58.21973
53089;BME280;38968;47.696;17.540;2022-07-06T04:32:31;10048650.0;;;19.62;59.07227
53089;BME280;38968;47.696;17.540;2022-07-06T04:37:31;10047730.0;;;20.07;58.16016
53089;BME280;38968;47.696;17.540;2022-07-06T04:42:31;10048420.0;;;20.3;57.76758
53089;BME280;38968;47.696;17.540;2022-07-06T04:47:32;10049060.0;;;20.43;57.49219
53089;BME280;38968;47.696;17.540;2022-07-06T04:52:32;10048510.0;;;20.48;57.18066
53089;BME280;38968;47.696;17.540;2022-07-06T04:57:32;10048830.0;;;20.72;56.37793
53089;BME280;38968;47.696;17.540;2022-07-06T05:02:31;10049170.0;;;20.58;57.34668
53089;BME280;38968;47.696;17.540;2022-07-06T05:07:31;10048830.0;;;20.72;56.91797
53089;BME280;38968;47.696;17.540;2022-07-06T05:12:31;10050080.0;;;20.71;57.03418
53089;BME280;38968;47.696;17.540;2022-07-06T05:17:31;10050760.0;;;21.12;55.72363
53089;BME280;38968;47.696;17.540;2022-07-06T05:22:31;10050910.0;;;21.17;55.92969
53089;BME280;38968;47.696;17.540;2022-07-06T05:27:31;10051420.0;;;21.03;55.70117
53089;BME280;38968;47.696;17.540;2022-07-06T05:32:31;10050870.0;;;21.41;54.41895
53089;BME280;38968;47.696;17.540;2022-07-06T05:37:31;10051450.0;;;21.66;54.47363
53089;BME280;38968;47.696;17.540;2022-07-06T05:42:31;10051840.0;;;21.92;54.08203
53089;BME280;38968;47.696;17.540;2022-07-06T05:47:31;10052580.0;;;22.19;53.59375
53089;BME280;38968;47.696;17.540;2022-07-06T05:52:31;10053680.0;;;22.3;51.81543
53089;BME280;38968;47.696;17.540;2022-07-06T05:57:31;10052940.0;;;22.49;50.94043
53089;BME280;38968;47.696;17.540;2022-07-06T06:02:39;10053510.0;;;22.75;49.92871
53089;BME280;38968;47.696;17.540;2022-07-06T06:07:32;10054710.0;;;23.12;49.5459
53089;BME280;38968;47.696;17.540;2022-07-06T06:12:31;10054270.0;;;23.41;48.84375
53089;BME280;38968;47.696;17.540;2022-07-06T06:17:31;10054190.0;;;23.39;49.58691
53089;BME280;38968;47.696;17.540;2022-07-06T06:22:31;10052870.0;;;23.23;48.72949
53089;BME280;38968;47.696;17.540;2022-07-06T06:27:31;10052520.0;;;23.8;46.63379
53089;BME280;38968;47.696;17.540;2022-07-06T06:32:31;10052470.0;;;24.02;47.00098
53089;BME280;38968;47.696;17.540;2022-07-06T06:37:31;10051660.0;;;24.71;44.78027
53089;BME280;38968;47.696;17.540;2022-07-06T06:42:32;10052550.0;;;24.72;45.50586
53089;BME280;38968;47.696;17.540;2022-07-06T06:47:33;10052730.0;;;24.98;44.26074
53089;BME280;38968;47.696;17.540;2022-07-06T06:52:31;10052980.0;;;24.87;45.36719
53089;BME280;38968;47.696;17.540;2022-07-06T06:57:31;10053320.0;;;24.64;45.25977
53089;BME280;38968;47.696;17.540;2022-07-06T07:02:31;10052880.0;;;24.21;46.09668
53089;BME280;38968;47.696;17.540;2022-07-06T07:07:31;10053600.0;;;24.34;45.81152
53089;BME280;38968;47.696;17.540;2022-07-06T07:12:32;10054190.0;;;23.97;46.59375
53089;BME280;38968;47.696;17.540;2022-07-06T07:17:31;10053730.0;;;23.71;47.63281
53089;BME280;38968;47.696;17.540;2022-07-06T07:22:32;10053860.0;;;24.21;46.20215
53089;BME280;38968;47.696;17.540;2022-07-06T07:27:32;10053920.0;;;24.53;46.1875
53089;BME280;38968;47.696;17.540;2022-07-06T07:32:31;10053960.0;;;25.15;45.62109
53089;BME280;38968;47.696;17.540;2022-07-06T07:37:31;10053950.0;;;25.55;43.2207
53089;BME280;38968;47.696;17.540;2022-07-06T07:42:32;10054090.0;;;24.95;44.0791
53089;BME280;38968;47.696;17.540;2022-07-06T07:47:31;10054350.0;;;25.1;43.92578
53089;BME280;38968;47.696;17.540;2022-07-06T07:52:32;10053760.0;;;24.77;44.46582
53089;BME280;38968;47.696;17.540;2022-07-06T08:02:58;10055340.0;;;25.47;43.65332
53089;BME280;38968;47.696;17.540;2022-07-06T08:07:58;10055020.0;;;25.8;42.30273
53089;BME280;38968;47.696;17.540;2022-07-06T08:12:58;10055230.0;;;26.37;41.48438
53089;BME280;38968;47.696;17.540;2022-07-06T08:17:58;10054100.0;;;26.47;39.83301
53089;BME280;38968;47.696;17.540;2022-07-06T08:22:58;10054840.0;;;26.3;40.76172
53089;BME280;38968;47.696;17.540;2022-07-06T08:27:58;10054150.0;;;26.26;42.32129
53089;BME280;38968;47.696;17.540;2022-07-06T08:32:58;10054530.0;;;27.08;40.3291
53089;BME280;38968;47.696;17.540;2022-07-06T08:37:58;10055430.0;;;27.07;40.87891
53089;BME280;38968;47.696;17.540;2022-07-06T08:42:59;10055860.0;;;27.23;39.85156
53089;BME280;38968;47.696;17.540;2022-07-06T08:48:03;10056870.0;;;27.19;38.99805
53089;BME280;38968;47.696;17.540;2022-07-06T08:52:58;10056320.0;;;27.08;37.92285
53089;BME280;38968;47.696;17.540;2022-07-06T08:57:58;10055450.0;;;27.41;38.58594
53089;BME280;38968;47.696;17.540;2022-07-06T09:02:58;10055420.0;;;28.13;37.14746
53089;BME280;38968;47.696;17.540;2022-07-06T09:08:04;10055070.0;;;27.88;37.57129
53089;BME280;38968;47.696;17.540;2022-07-06T09:13:04;10054870.0;;;28.58;36.11426
53089;BME280;38968;47.696;17.540;2022-07-06T09:17:58;10054290.0;;;28.62;35.03613
53089;BME280;38968;47.696;17.540;2022-07-06T09:23:00;10055330.0;;;27.9;36.99609
53089;BME280;38968;47.696;17.540;2022-07-06T09:27:59;10054190.0;;;28.63;34.42383
53089;BME280;38968;47.696;17.540;2022-07-06T09:32:59;10054020.0;;;28.41;36.61816
53089;BME280;38968;47.696;17.540;2022-07-06T09:38:11;10053810.0;;;28.88;34.79199
53089;BME280;38968;47.696;17.540;2022-07-06T09:48:04;10054030.0;;;29.36;32.9375
53089;BME280;38968;47.696;17.540;2022-07-06T09:52:58;10054430.0;;;29.21;33.92578
53089;BME280;38968;47.696;17.540;2022-07-06T09:57:59;10054100.0;;;29.17;32.56152
53089;BME280;38968;47.696;17.540;2022-07-06T10:02:59;10054470.0;;;29.47;33.39063
53089;BME280;38968;47.696;17.540;2022-07-06T10:08:00;10054480.0;;;28.94;33.48438
53089;BME280;38968;47.696;17.540;2022-07-06T10:12:59;10054190.0;;;28.97;33.29297
53089;BME280;38968;47.696;17.540;2022-07-06T10:17:59;10054110.0;;;29.59;32.67676
53089;BME280;38968;47.696;17.540;2022-07-06T10:22:59;10054070.0;;;29.52;33.29785
53089;BME280;38968;47.696;17.540;2022-07-06T10:27:59;10054020.0;;;29.89;32.05762
53089;BME280;38968;47.696;17.540;2022-07-06T10:32:59;10053860.0;;;29.03;33.28613
53089;BME280;38968;47.696;17.540;2022-07-06T10:38:08;10053720.0;;;30.02;31.46387
53089;BME280;38968;47.696;17.540;2022-07-06T10:43:00;10053990.0;;;30.02;32.01855
53089;BME280;38968;47.696;17.540;2022-07-06T10:52:58;10054530.0;;;29.83;31.98145
53089;BME280;38968;47.696;17.540;2022-07-06T10:57:59;10054480.0;;;30.08;29.65625
53089;BME280;38968;47.696;17.540;2022-07-06T11:03:12;10053540.0;;;30.62;30.44141
53089;BME280;38968;47.696;17.540;2022-07-06T11:08:01;10054260.0;;;30.32;31.65332
53089;BME280;38968;47.696;17.540;2022-07-06T11:12:59;10055530.0;;;30.42;30.40332
53089;BME280;38968;47.696;17.540;2022-07-06T11:18:11;10055750.0;;;30.67;31.67773
53089;BME280;38968;47.696;17.540;2022-07-06T11:22:59;10055450.0;;;31.57;30.66211
53089;BME280;38968;47.696;17.540;2022-07-06T11:27:59;10055620.0;;;30.91;31.91211
53089;BME280;38968;47.696;17.540;2022-07-06T11:32:58;10055870.0;;;30.44;31.98828
53089;BME280;38968;47.696;17.540;2022-07-06T11:37:58;10055990.0;;;30.11;32.36328
53089;BME280;38968;47.696;17.540;2022-07-06T11:42:58;10055790.0;;;31.11;29.75977
53089;BME280;38968;47.696;17.540;2022-07-06T11:48:11;10054150.0;;;31.61;29.81641
53089;BME280;38968;47.696;17.540;2022-07-06T11:52:59;10053970.0;;;31.52;29.11914
53089;BME280;38968;47.696;17.540;2022-07-06T11:57:59;10055120.0;;;31.15;31.74805
53089;BME280;38968;47.696;17.540;2022-07-06T12:03:00;10053880.0;;;32.26;28.08594
53089;BME280;38968;47.696;17.540;2022-07-06T12:08:08;10052170.0;;;31.6;31.14941
53089;BME280;38968;47.696;17.540;2022-07-06T12:13:04;10052910.0;;;30.82;30.04297
53089;BME280;38968;47.696;17.540;2022-07-06T12:17:58;10052700.0;;;31.89;29.37402
53089;BME280;38968;47.696;17.540;2022-07-06T12:23:02;10051040.0;;;32.12;27.7373
53089;BME280;38968;47.696;17.540;2022-07-06T12:27:58;10052490.0;;;30.88;31.12402
53089;BME280;38968;47.696;17.540;2022-07-06T12:33:14;10051400.0;;;30.01;32.15137
53089;BME280;38968;47.696;17.540;2022-07-06T12:37:58;10051240.0;;;30.48;31.95508
53089;BME280;38968;47.696;17.540;2022-07-06T12:42:58;10052650.0;;;31.2;30.39453
53089;BME280;38968;47.696;17.540;2022-07-06T12:48:02;10052020.0;;;30.22;32.28711
53089;BME280;38968;47.696;17.540;2022-07-06T12:52:58;10052610.0;;;30.76;30.77637
53089;BME280;38968;47.696;17.540;2022-07-06T12:57:58;10053740.0;;;30;31.13672
53089;BME280;38968;47.696;17.540;2022-07-06T13:02:58;10054910.0;;;29.9;30.64648
53089;BME280;38968;47.696;17.540;2022-07-06T13:07:58;10055680.0;;;29.85;31.08887
53089;BME280;38968;47.696;17.540;2022-07-06T13:12:58;10056320.0;;;29.72;31.38281
53089;BME280;38968;47.696;17.540;2022-07-06T13:17:58;10059030.0;;;28.65;36.5166
53089;BME280;38968;47.696;17.540;2022-07-06T13:22:58;10061410.0;;;27.57;38.62402
53089;BME280;38968;47.696;17.540;2022-07-06T13:27:58;10061080.0;;;26.71;41.47852
53089;BME280;38968;47.696;17.540;2022-07-06T13:32:58;10060630.0;;;26.46;42.33984
53089;BME280;38968;47.696;17.540;2022-07-06T13:37:58;10058800.0;;;26.76;41.36523
53089;BME280;38968;47.696;17.540;2022-07-06T13:42:58;10058600.0;;;26.91;40.67285
53089;BME280;38968;47.696;17.540;2022-07-06T13:47:58;10055990.0;;;27.97;39.22168
53089;BME280;38968;47.696;17.540;2022-07-06T13:52:58;10056830.0;;;29.24;35.54199
53089;BME280;38968;47.696;17.540;2022-07-06T13:57:58;10056040.0;;;29.74;36.11035
53089;BME280;38968;47.696;17.540;2022-07-06T14:02:58;10055900.0;;;30.6;32.35059
53089;BME280;38968;47.696;17.540;2022-07-06T14:07:58;10056240.0;;;30.02;32.18848
53089;BME280;38968;47.696;17.540;2022-07-06T14:12:59;10056940.0;;;31.23;29.71875
53089;BME280;38968;47.696;17.540;2022-07-06T14:17:58;10056610.0;;;30.71;30.44727
53089;BME280;38968;47.696;17.540;2022-07-06T14:22:58;10056080.0;;;31.38;29.94727
53089;BME280;38968;47.696;17.540;2022-07-06T14:27:59;10056180.0;;;31.28;32.04688
53089;BME280;38968;47.696;17.540;2022-07-06T14:32:58;10055270.0;;;31.85;30.43945
53089;BME280;38968;47.696;17.540;2022-07-06T14:37:58;10054460.0;;;31.09;32.3252
53089;BME280;38968;47.696;17.540;2022-07-06T14:42:59;10053320.0;;;31.92;30.39453
53089;BME280;38968;47.696;17.540;2022-07-06T14:47:58;10054190.0;;;31.76;30.38379
53089;BME280;38968;47.696;17.540;2022-07-06T14:52:58;10053310.0;;;31.64;30.46094
53089;BME280;38968;47.696;17.540;2022-07-06T14:57:58;10053010.0;;;31.48;32.14648
53089;BME280;38968;47.696;17.540;2022-07-06T15:02:58;10051560.0;;;32.51;30.5918
53089;BME280;38968;47.696;17.540;2022-07-06T15:07:58;10052300.0;;;32.21;30.01367
53089;BME280;38968;47.696;17.540;2022-07-06T15:12:58;10051920.0;;;32.14;29.74219
53089;BME280;38968;47.696;17.540;2022-07-06T15:17:58;10051940.0;;;31.28;32.39844
53089;BME280;38968;47.696;17.540;2022-07-06T15:22:59;10051500.0;;;31.27;31.44141
53089;BME280;38968;47.696;17.540;2022-07-06T15:27:58;10051910.0;;;31.31;30.71777
53089;BME280;38968;47.696;17.540;2022-07-06T15:32:59;10052240.0;;;31.25;30.87109
53089;BME280;38968;47.696;17.540;2022-07-06T15:37:58;10052350.0;;;31.03;31.14648
53089;BME280;38968;47.696;17.540;2022-07-06T15:42:58;10052760.0;;;30.59;31.50293
53089;BME280;38968;47.696;17.540;2022-07-06T15:47:59;10052850.0;;;30.19;31.5957
53089;BME280;38968;47.696;17.540;2022-07-06T15:52:58;10053140.0;;;30.06;31.62402
53089;BME280;38968;47.696;17.540;2022-07-06T15:57:58;10052680.0;;;29.88;32.27441
53089;BME280;38968;47.696;17.540;2022-07-06T16:02:58;10052010.0;;;31.5;31.11719
53089;BME280;38968;47.696;17.540;2022-07-06T16:07:58;10051620.0;;;32.45;29.74902
53089;BME280;38968;47.696;17.540;2022-07-06T16:12:58;10052750.0;;;30.7;32.29688
53089;BME280;38968;47.696;17.540;2022-07-06T16:17:58;10055520.0;;;29.72;37.71191
53089;BME280;38968;47.696;17.540;2022-07-06T16:22:58;10059030.0;;;27.18;46.79492
53089;BME280;38968;47.696;17.540;2022-07-06T16:27:59;10061640.0;;;25.91;46.60352
53089;BME280;38968;47.696;17.540;2022-07-06T16:32:58;10061260.0;;;24.63;52.72559
53089;BME280;38968;47.696;17.540;2022-07-06T16:37:58;10060430.0;;;24.25;49.89648
53089;BME280;38968;47.696;17.540;2022-07-06T16:42:58;10059830.0;;;24.63;50.65039
53089;BME280;38968;47.696;17.540;2022-07-06T16:47:58;10060400.0;;;24.3;52.10547
53089;BME280;38968;47.696;17.540;2022-07-06T16:52:58;10059620.0;;;24.25;53.62891
53089;BME280;38968;47.696;17.540;2022-07-06T16:57:58;10057400.0;;;24.53;51.43262
53089;BME280;38968;47.696;17.540;2022-07-06T17:02:58;10054740.0;;;24.91;52.40234
53089;BME280;38968;47.696;17.540;2022-07-06T17:07:58;10053840.0;;;24.8;53.51563
53089;BME280;38968;47.696;17.540;2022-07-06T17:12:59;10052780.0;;;24.78;53.78613
53089;BME280;38968;47.696;17.540;2022-07-06T17:17:59;10052850.0;;;25.2;53.06543
53089;BME280;38968;47.696;17.540;2022-07-06T17:22:59;10052980.0;;;25.27;51.17383
53089;BME280;38968;47.696;17.540;2022-07-06T17:27:59;10052780.0;;;25.3;53.71875
53089;BME280;38968;47.696;17.540;2022-07-06T17:32:58;10053840.0;;;25.57;53.26465
53089;BME280;38968;47.696;17.540;2022-07-06T17:37:58;10054280.0;;;25.46;56.32422
53089;BME280;38968;47.696;17.540;2022-07-06T17:42:58;10054120.0;;;25.3;55.07129
53089;BME280;38968;47.696;17.540;2022-07-06T17:47:59;10054840.0;;;25.16;55.85938
53089;BME280;38968;47.696;17.540;2022-07-06T17:52:58;10055310.0;;;24.99;56.13672
53089;BME280;38968;47.696;17.540;2022-07-06T17:57:58;10056380.0;;;24.99;55.75684
53089;BME280;38968;47.696;17.540;2022-07-06T18:02:59;10056360.0;;;24.88;56.66699
53089;BME280;38968;47.696;17.540;2022-07-06T18:07:59;10056890.0;;;24.77;55.98926
53089;BME280;38968;47.696;17.540;2022-07-06T18:12:58;10056930.0;;;24.57;57.76367
53089;BME280;38968;47.696;17.540;2022-07-06T18:17:59;10056750.0;;;24.57;56.75879
53089;BME280;38968;47.696;17.540;2022-07-06T18:22:58;10055670.0;;;24.59;56.20313
53089;BME280;38968;47.696;17.540;2022-07-06T18:27:58;10056460.0;;;24.47;55.49121
53089;BME280;38968;47.696;17.540;2022-07-06T18:32:59;10055110.0;;;24.49;56.01465
53089;BME280;38968;47.696;17.540;2022-07-06T18:37:58;10055820.0;;;24.48;56.57031
53089;BME280;38968;47.696;17.540;2022-07-06T18:42:59;10055170.0;;;24.4;56.85449
53089;BME280;38968;47.696;17.540;2022-07-06T18:47:58;10055480.0;;;24.19;58.55664
53089;BME280;38968;47.696;17.540;2022-07-06T18:52:58;10055260.0;;;23.97;59.95801
53089;BME280;38968;47.696;17.540;2022-07-06T18:57:58;10056100.0;;;23.91;60.69336
53089;BME280;38968;47.696;17.540;2022-07-06T19:02:59;10057670.0;;;23.52;62.49219
53089;BME280;38968;47.696;17.540;2022-07-06T19:07:58;10056470.0;;;23.89;60.98535
53089;BME280;38968;47.696;17.540;2022-07-06T19:12:58;10056310.0;;;24.01;60.81152
53089;BME280;38968;47.696;17.540;2022-07-06T19:18:01;10057070.0;;;24.07;60.0166
53089;BME280;38968;47.696;17.540;2022-07-06T19:22:59;10057930.0;;;23.69;62.18457
53089;BME280;38968;47.696;17.540;2022-07-06T19:27:58;10057900.0;;;23.59;62.96191
53089;BME280;38968;47.696;17.540;2022-07-06T19:32:59;10057770.0;;;23.36;63.60156
53089;BME280;38968;47.696;17.540;2022-07-06T19:37:59;10057760.0;;;23.38;63.21484
53089;BME280;38968;47.696;17.540;2022-07-06T19:42:58;10057750.0;;;23.39;63.44141
53089;BME280;38968;47.696;17.540;2022-07-06T19:47:58;10058740.0;;;23.23;63.39453
53089;BME280;38968;47.696;17.540;2022-07-06T19:52:59;10059240.0;;;22.98;63.81836
53089;BME280;38968;47.696;17.540;2022-07-06T19:57:59;10059390.0;;;23.03;64.09668
53089;BME280;38968;47.696;17.540;2022-07-06T20:02:58;10059380.0;;;22.89;64.99414
53089;BME280;38968;47.696;17.540;2022-07-06T20:07:58;10059660.0;;;22.87;65.05078
53089;BME280;38968;47.696;17.540;2022-07-06T20:12:58;10059650.0;;;23.03;64.93262
53089;BME280;38968;47.696;17.540;2022-07-06T20:17:59;10059940.0;;;22.84;64.07031
53089;BME280;38968;47.696;17.540;2022-07-06T20:22:59;10060500.0;;;22.64;64.92188
53089;BME280;38968;47.696;17.540;2022-07-06T20:27:59;10060950.0;;;22.95;64.30859
53089;BME280;38968;47.696;17.540;2022-07-06T20:32:58;10061010.0;;;22.67;64.20996
53089;BME280;38968;47.696;17.540;2022-07-06T20:37:58;10060950.0;;;22.79;63.5918
53089;BME280;38968;47.696;17.540;2022-07-06T20:42:58;10061630.0;;;22.53;63.84863
53089;BME280;38968;47.696;17.540;2022-07-06T20:47:58;10062460.0;;;22.31;63.72266
53089;BME280;38968;47.696;17.540;2022-07-06T20:52:58;10061150.0;;;22.11;64.31836
53089;BME280;38968;47.696;17.540;2022-07-06T20:57:59;10061970.0;;;21.91;64.63965
53089;BME280;38968;47.696;17.540;2022-07-06T21:02:58;10061960.0;;;22.09;64.06836
53089;BME280;38968;47.696;17.540;2022-07-06T21:08:03;10062830.0;;;22.13;64.40234
53089;BME280;38968;47.696;17.540;2022-07-06T21:12:59;10062420.0;;;22.06;64.74512
53089;BME280;38968;47.696;17.540;2022-07-06T21:17:58;10062570.0;;;21.94;64.59961
53089;BME280;38968;47.696;17.540;2022-07-06T21:22:58;10062330.0;;;21.72;65.76465
53089;BME280;38968;47.696;17.540;2022-07-06T21:27:58;10062860.0;;;22.05;65.1543
53089;BME280;38968;47.696;17.540;2022-07-06T21:32:58;10062210.0;;;21.95;64.96484
53089;BME280;38968;47.696;17.540;2022-07-06T21:37:58;10061430.0;;;21.91;65.01563
53089;BME280;38968;47.696;17.540;2022-07-06T21:42:58;10062360.0;;;22.01;64.5498
53089;BME280;38968;47.696;17.540;2022-07-06T21:48:00;10062400.0;;;21.93;64.37305
53089;BME280;38968;47.696;17.540;2022-07-06T21:52:58;10063250.0;;;21.82;64.49902
53089;BME280;38968;47.696;17.540;2022-07-06T21:57:58;10064320.0;;;21.65;64.62793
53089;BME280;38968;47.696;17.540;2022-07-06T22:02:58;10063560.0;;;21.57;65.17871
53089;BME280;38968;47.696;17.540;2022-07-06T22:07:58;10065000.0;;;21;66.27832
53089;BME280;38968;47.696;17.540;2022-07-06T22:12:59;10064230.0;;;21.28;66.34375
53089;BME280;38968;47.696;17.540;2022-07-06T22:17:58;10063950.0;;;21.5;65.11035
53089;BME280;38968;47.696;17.540;2022-07-06T22:22:58;10064260.0;;;21.41;65.21484
53089;BME280;38968;47.696;17.540;2022-07-06T22:27:58;10063360.0;;;21.26;66.0957
53089;BME280;38968;47.696;17.540;2022-07-06T22:32:58;10063160.0;;;21.49;64.7334
53089;BME280;38968;47.696;17.540;2022-07-06T22:37:58;10063640.0;;;21.58;63.95898
53089;BME280;38968;47.696;17.540;2022-07-06T22:42:58;10063910.0;;;21.41;63.62988
53089;BME280;38968;47.696;17.540;2022-07-06T22:47:58;10064360.0;;;21.04;64.28027
53089;BME280;38968;47.696;17.540;2022-07-06T22:52:58;10063960.0;;;20.95;65.07617
53089;BME280;38968;47.696;17.540;2022-07-06T22:57:58;10064210.0;;;20.79;65.95605
53089;BME280;38968;47.696;17.540;2022-07-06T23:02:58;10064780.0;;;20.72;65.97949
53089;BME280;38968;47.696;17.540;2022-07-06T23:07:58;10064460.0;;;20.83;65.77246
53089;BME280;38968;47.696;17.540;2022-07-06T23:12:58;10064770.0;;;20.54;65.61426
53089;BME280;38968;47.696;17.540;2022-07-06T23:17:58;10064730.0;;;20.64;65.90918
53089;BME280;38968;47.696;17.540;2022-07-06T23:22:58;10064040.0;;;20.6;65.40039
53089;BME280;38968;47.696;17.540;2022-07-06T23:27:58;10064570.0;;;20.78;65.54492
53089;BME280;38968;47.696;17.540;2022-07-06T23:32:58;10064920.0;;;20.6;65.29492
53089;BME280;38968;47.696;17.540;2022-07-06T23:37:58;10064810.0;;;20.47;65.60352
53089;BME280;38968;47.696;17.540;2022-07-06T23:42:58;10063530.0;;;20.55;64.97168
53089;BME280;38968;47.696;17.540;2022-07-06T23:47:58;10064970.0;;;20.51;64.83789
53089;BME280;38968;47.696;17.540;2022-07-06T23:52:58;10064220.0;;;20.4;65.16113
53089;BME280;38968;47.696;17.540;2022-07-06T23:57:58;10064670.0;;;20.38;65.33301
